This is the latest recevied weather packets stored in our database for station/object HB9FHL-13. If no packets are shown the sender has not sent any weather packets the latest 1 day(s).
| Time | Temp. | Humidity | Pressure | Rain* | Wind** | Luminosity | Snow |
|---|---|---|---|---|---|---|---|
| 1777967144 | 11.11° C | - | 1008.5 hPa | 0 mm | 0 m/s | - | - |
| 1777966842 | 11.67° C | - | 1012.9 hPa | 0 mm | 1.34 m/s, 77° | - | - |
| 1777966542 | 11.11° C | - | 1012.6 hPa | 0 mm | 0.89 m/s, 80° | - | - |
| 1777966241 | 11.11° C | - | 1010.3 hPa | 0 mm | 0.89 m/s, 104° | - | - |
| 1777965941 | 11.11° C | - | 1009.9 hPa | 0 mm | 1.34 m/s, 89° | - | - |
| 1777965640 | 11.11° C | - | 1010.6 hPa | 0 mm | 1.34 m/s, 83° | - | - |
| 1777965340 | 11.67° C | - | 1005.4 hPa | 0 mm | 0.45 m/s, 77° | - | - |
| 1777965039 | 11.11° C | - | 1012.8 hPa | 0 mm | 0.45 m/s, 79° | - | - |
| 1777964739 | 11.11° C | - | 1009.9 hPa | 0 mm | 0 m/s | - | - |
| 1777964438 | 11.11° C | - | 1012.7 hPa | 0 mm | 0 m/s | - | - |
| 1777964138 | 11.67° C | - | 1008.5 hPa | 0 mm | 0 m/s | - | - |
| 1777963837 | 11.67° C | - | 1009 hPa | 0 mm | 0 m/s | - | - |
| 1777963537 | 10.56° C | - | 1012.9 hPa | 0 mm | 0 m/s | - | - |
| 1777963236 | 11.11° C | - | 1009.5 hPa | 0 mm | 0.45 m/s, 326° | - | - |
| 1777962936 | 11.67° C | - | 1009 hPa | 0 mm | 0 m/s | - | - |
| 1777962633 | 12.22° C | - | 1009.6 hPa | 0 mm | 0 m/s | - | - |
| 1777962332 | 11.11° C | - | 1012.8 hPa | 0 mm | 0.45 m/s, 240° | - | - |
| 1777962032 | 12.22° C | - | 1010.3 hPa | 0 mm | 0.45 m/s, 236° | - | - |
| 1777961731 | 11.11° C | - | 1009.7 hPa | 0 mm | 0 m/s | - | - |
| 1777961431 | 11.11° C | - | 1011.5 hPa | 0 mm | 0 m/s | - | - |
| 1777961130 | 12.22° C | - | 1008.6 hPa | 0 mm | 0.45 m/s, 226° | - | - |
| 1777960830 | 11.11° C | - | 1007.5 hPa | 0 mm | 0.45 m/s, 229° | - | - |
| 1777960529 | 11.67° C | - | 1009.4 hPa | 0 mm | 0 m/s | - | - |
| 1777960229 | 10.56° C | - | 1008.4 hPa | 0 mm | 0 m/s | - | - |
| 1777959928 | 11.11° C | - | 1008.5 hPa | 0 mm | 1.34 m/s, 231° | - | - |
* Rain since midnight (hover to see other rain measurements)
** Current wind speed in m/s (hover to see current wind gust speed)